Time;durP1;ratioP1;P1;durP2;ratioP2;P2;SDS_P1;SDS_P2;PMS_P1;PMS_P2;Temp;Humidity;BMP_temperature;BMP_pressure;BME280_temperature;BME280_humidity;BME280_pressure;Samples;Min_cycle;Max_cycle;Signal;HPM_P1;HPM_P2
2023/01/06 00:02:00;;;;;;;1.38;1.27;;;12.00;99.90;;;;;;4937950;29;20192;-68
2023/01/06 00:04:26;;;;;;;1.42;1.33;;;11.70;99.90;;;;;;4938931;29;20188;-67
2023/01/06 00:06:52;;;;;;;1.27;1.17;;;11.90;99.90;;;;;;4957407;28;20670;-68
2023/01/06 00:09:17;;;;;;;2.53;1.63;;;11.90;99.90;;;;;;4940695;29;20222;-68
2023/01/06 00:11:43;;;;;;;1.30;1.20;;;12.00;99.90;;;;;;4940125;29;20270;-67
2023/01/06 00:14:09;;;;;;;3.17;1.27;;;12.00;99.90;;;;;;4944952;29;20312;-68
2023/01/06 00:16:35;;;;;;;1.20;0.93;;;12.10;99.90;;;;;;4940914;29;20547;-68
2023/01/06 00:19:00;;;;;;;2.80;1.17;;;11.90;99.90;;;;;;4945225;29;20193;-69
2023/01/06 00:21:27;;;;;;;1.37;1.27;;;11.90;99.90;;;;;;4943526;28;20475;-68
2023/01/06 00:23:53;;;;;;;1.23;1.13;;;12.00;99.90;;;;;;4943700;29;20452;-68
2023/01/06 00:26:19;;;;;;;2.00;1.30;;;12.30;99.90;;;;;;4944078;29;20197;-68
2023/01/06 00:28:45;;;;;;;1.80;1.23;;;12.30;99.90;;;;;;4941616;29;20586;-67
2023/01/06 00:31:13;;;;;;;1.43;0.90;;;12.20;99.90;;;;;;4950233;29;20580;-68
2023/01/06 00:33:39;;;;;;;3.65;1.45;;;12.10;99.90;;;;;;4945510;29;20719;-66
2023/01/06 00:36:07;;;;;;;1.02;0.93;;;12.30;99.90;;;;;;4940941;29;20280;-67
2023/01/06 00:38:35;;;;;;;2.00;1.20;;;12.20;99.90;;;;;;4944823;29;20205;-67
2023/01/06 00:42:02;;;;;;;1.10;1.00;;;12.20;99.90;;;;;;4945921;29;20566;-68
2023/01/06 00:43:52;;;;;;;2.65;1.63;;;12.10;99.90;;;;;;4942504;29;20189;-68
2023/01/06 00:46:18;;;;;;;2.50;1.73;;;12.20;99.90;;;;;;4948095;28;20329;-68
2023/01/06 00:48:43;;;;;;;2.50;1.57;;;12.10;99.90;;;;;;4944172;28;20215;-68
2023/01/06 00:51:09;;;;;;;1.67;1.47;;;12.20;99.90;;;;;;4941991;29;20197;-68
2023/01/06 00:53:35;;;;;;;1.60;1.50;;;12.10;99.90;;;;;;4942624;29;20312;-68
2023/01/06 00:56:01;;;;;;;1.43;1.33;;;12.30;99.90;;;;;;4940288;29;20242;-67
2023/01/06 00:58:31;;;;;;;1.60;1.42;;;12.20;99.90;;;;;;4949275;28;20220;-67
2023/01/06 01:00:57;;;;;;;1.65;1.55;;;12.10;99.90;;;;;;4943988;28;20295;-67
2023/01/06 01:03:22;;;;;;;1.23;1.13;;;12.20;99.90;;;;;;4959394;28;20707;-67
2023/01/06 01:05:48;;;;;;;2.10;1.23;;;11.90;99.90;;;;;;4946764;28;20277;-67
2023/01/06 01:08:14;;;;;;;1.17;1.10;;;11.90;99.90;;;;;;4943252;29;20472;-67
2023/01/06 01:10:39;;;;;;;1.20;1.00;;;12.00;99.90;;;;;;4947700;29;20194;-68
2023/01/06 01:13:05;;;;;;;1.50;1.10;;;11.80;99.90;;;;;;4945189;29;20276;-68
2023/01/06 01:15:31;;;;;;;1.37;1.27;;;12.00;99.90;;;;;;4949249;28;20192;-67
2023/01/06 01:17:56;;;;;;;1.57;1.20;;;12.00;99.90;;;;;;4946823;29;20268;-67
2023/01/06 01:20:22;;;;;;;1.50;1.40;;;11.90;99.90;;;;;;4951670;28;20464;-67
2023/01/06 01:22:48;;;;;;;1.90;1.30;;;12.10;99.90;;;;;;4942685;29;20579;-67
2023/01/06 01:25:14;;;;;;;2.67;1.10;;;11.70;99.90;;;;;;4947341;28;20281;-68
2023/01/06 01:27:40;;;;;;;1.90;1.20;;;11.80;99.90;;;;;;4957912;28;20232;-67
2023/01/06 01:30:06;;;;;;;1.15;1.05;;;11.80;99.90;;;;;;4943357;28;20220;-68
2023/01/06 01:32:32;;;;;;;1.70;1.52;;;11.50;99.90;;;;;;4946524;29;20196;-67
2023/01/06 01:34:57;;;;;;;1.40;1.10;;;11.50;99.90;;;;;;4942261;29;20184;-67
2023/01/06 01:37:23;;;;;;;1.47;1.37;;;11.50;99.90;;;;;;4939251;29;20216;-67
2023/01/06 01:39:49;;;;;;;1.37;1.17;;;11.50;99.90;;;;;;4953178;28;20192;-67
2023/01/06 01:42:17;;;;;;;1.50;1.30;;;11.40;99.90;;;;;;4948137;28;20211;-67
2023/01/06 01:45:03;;;;;;;1.70;1.40;;;11.70;99.90;;;;;;4944088;28;20242;-66
2023/01/06 01:47:43;;;;;;;0.90;0.90;;;11.30;99.90;;;;;;4945346;28;20219;-67
2023/01/06 01:50:24;;;;;;;1.15;1.05;;;11.50;99.90;;;;;;4950284;28;20202;-67
2023/01/06 01:52:53;;;;;;;1.50;1.40;;;11.60;99.90;;;;;;4942385;28;20304;-68
2023/01/06 01:55:19;;;;;;;1.60;1.27;;;11.50;99.90;;;;;;4949383;28;20181;-68
2023/01/06 01:58:01;;;;;;;1.35;1.25;;;11.50;99.90;;;;;;4955617;28;20595;-67
2023/01/06 02:00:26;;;;;;;1.63;1.52;;;11.80;99.90;;;;;;4947040;29;20610;-67
2023/01/06 02:02:53;;;;;;;1.47;1.37;;;11.70;99.90;;;;;;4948887;28;20246;-67
2023/01/06 02:05:22;;;;;;;1.40;1.20;;;11.40;99.90;;;;;;4947507;28;20978;-67
2023/01/06 02:07:48;;;;;;;1.30;1.20;;;11.80;99.90;;;;;;4947954;28;20272;-68
2023/01/06 02:10:20;;;;;;;1.35;1.17;;;11.60;99.90;;;;;;4958375;28;20261;-68
2023/01/06 02:12:49;;;;;;;1.73;1.30;;;11.80;99.90;;;;;;4948093;28;20688;-68
2023/01/06 02:15:26;;;;;;;1.25;1.15;;;11.60;99.90;;;;;;4945865;28;20734;-69
2023/01/06 02:18:15;;;;;;;1.30;1.10;;;11.80;99.90;;;;;;4942753;29;20208;-68
2023/01/06 02:20:46;;;;;;;1.40;1.30;;;11.70;99.90;;;;;;4943623;28;20760;-68
2023/01/06 02:23:49;;;;;;;1.40;1.08;;;11.90;99.90;;;;;;4943942;28;20206;-69
2023/01/06 02:26:50;;;;;;;1.77;1.20;;;11.90;99.90;;;;;;4946611;29;20215;-68
2023/01/06 02:29:46;;;;;;;1.52;1.42;;;11.80;99.90;;;;;;4943512;28;20249;-68
2023/01/06 02:32:27;;;;;;;1.40;0.98;;;11.80;99.90;;;;;;4946095;28;20298;-68
2023/01/06 02:35:13;;;;;;;1.45;1.20;;;11.90;99.90;;;;;;4945858;29;20195;-68
2023/01/06 02:37:56;;;;;;;1.98;1.30;;;11.80;99.90;;;;;;4942548;28;20328;-68
2023/01/06 02:40:39;;;;;;;1.40;1.20;;;12.10;99.90;;;;;;4942195;28;20235;-68
2023/01/06 02:43:35;;;;;;;1.10;1.00;;;12.00;99.90;;;;;;4942247;28;20196;-68
2023/01/06 02:46:10;;;;;;;2.53;1.13;;;11.80;99.90;;;;;;4947705;28;20177;-69
2023/01/06 02:49:02;;;;;;;1.13;1.02;;;12.00;99.90;;;;;;4944569;29;20254;-68
2023/01/06 02:52:08;;;;;;;1.40;1.30;;;12.10;99.90;;;;;;4942055;28;20224;-67
2023/01/06 02:55:02;;;;;;;1.15;1.00;;;11.90;99.90;;;;;;4936433;29;20270;-67
2023/01/06 02:57:36;;;;;;;1.20;1.10;;;11.90;99.90;;;;;;4942861;29;20203;-68
2023/01/06 03:00:23;;;;;;;1.40;1.10;;;11.70;99.90;;;;;;4943562;29;20192;-67
2023/01/06 03:02:57;;;;;;;1.30;1.20;;;11.80;99.90;;;;;;4943354;28;20192;-67
2023/01/06 03:05:24;;;;;;;1.50;1.40;;;11.80;99.90;;;;;;4939108;28;20322;-68
2023/01/06 03:07:51;;;;;;;1.20;1.08;;;11.70;99.90;;;;;;4942851;28;20222;-68
2023/01/06 03:10:19;;;;;;;1.27;1.17;;;11.90;99.90;;;;;;4940831;28;20227;-67
2023/01/06 03:13:05;;;;;;;1.65;1.40;;;11.80;99.90;;;;;;4945839;28;20236;-68
2023/01/06 03:15:31;;;;;;;1.30;1.00;;;11.90;99.90;;;;;;4941958;28;20191;-68
2023/01/06 03:17:57;;;;;;;1.40;1.30;;;11.90;99.90;;;;;;4945785;28;20312;-68
2023/01/06 03:20:23;;;;;;;1.23;1.13;;;11.90;99.90;;;;;;4944403;28;20198;-68
2023/01/06 03:22:48;;;;;;;1.30;1.20;;;12.10;99.90;;;;;;4947710;28;20260;-69
2023/01/06 03:25:14;;;;;;;1.50;1.40;;;12.00;99.90;;;;;;4946012;28;20226;-68
2023/01/06 03:27:40;;;;;;;1.20;1.10;;;12.10;99.90;;;;;;4943636;28;20209;-68
2023/01/06 03:30:10;;;;;;;1.10;1.00;;;12.30;99.90;;;;;;4946049;28;20444;-69
2023/01/06 03:32:47;;;;;;;1.45;1.25;;;12.00;99.90;;;;;;4939591;28;20199;-68
2023/01/06 03:35:45;;;;;;;1.50;1.23;;;12.00;99.90;;;;;;4941998;29;20193;-68
2023/01/06 03:38:20;;;;;;;1.58;1.10;;;12.00;99.90;;;;;;4939611;29;20205;-68
2023/01/06 03:40:45;;;;;;;1.30;1.10;;;12.00;99.90;;;;;;4941868;29;20195;-67
2023/01/06 03:43:15;;;;;;;1.17;0.93;;;11.80;99.90;;;;;;4940581;29;20188;-68
2023/01/06 03:45:51;;;;;;;0.90;0.90;;;11.80;99.90;;;;;;4939016;28;20203;-69
2023/01/06 03:48:21;;;;;;;1.55;1.45;;;11.80;99.90;;;;;;4942988;29;20684;-67
2023/01/06 03:51:10;;;;;;;2.10;1.90;;;11.70;99.90;;;;;;4941992;29;20196;-67
2023/01/06 03:53:48;;;;;;;3.15;1.50;;;11.80;99.90;;;;;;4949171;28;20201;-68
2023/01/06 03:56:23;;;;;;;1.50;1.40;;;11.70;99.90;;;;;;4944365;28;20260;-68
2023/01/06 03:58:53;;;;;;;1.20;1.10;;;11.20;99.90;;;;;;4947412;29;20262;-68
2023/01/06 04:01:22;;;;;;;1.50;1.40;;;11.20;99.90;;;;;;4949799;29;20234;-69
2023/01/06 04:03:51;;;;;;;2.25;1.45;;;11.20;99.90;;;;;;4946785;29;20196;-69
2023/01/06 04:06:17;;;;;;;1.42;1.10;;;11.30;99.90;;;;;;4945192;29;20247;-68
2023/01/06 04:08:43;;;;;;;2.30;1.30;;;11.20;99.90;;;;;;4948889;29;20220;-68
2023/01/06 04:12:37;;;;;;;1.40;1.20;;;11.10;99.90;;;;;;4949959;29;20458;-68
2023/01/06 04:13:54;;;;;;;1.58;1.30;;;11.10;99.90;;;;;;4943854;29;20446;-67
2023/01/06 04:16:20;;;;;;;1.60;1.50;;;11.10;99.90;;;;;;4944673;29;20633;-69
2023/01/06 04:18:46;;;;;;;1.47;1.37;;;11.00;99.90;;;;;;4941686;29;20245;-69
2023/01/06 04:21:12;;;;;;;5.10;1.60;;;10.90;99.90;;;;;;4959223;28;20485;-68
2023/01/06 04:23:38;;;;;;;2.70;1.57;;;10.80;99.90;;;;;;4944970;28;20199;-69
2023/01/06 04:26:03;;;;;;;2.27;1.47;;;10.50;99.90;;;;;;4943904;28;20271;-69
2023/01/06 04:28:29;;;;;;;1.43;1.33;;;10.70;99.90;;;;;;4961083;28;20211;-69
2023/01/06 04:30:59;;;;;;;1.50;1.40;;;10.80;99.90;;;;;;4940940;28;20189;-68
2023/01/06 04:33:25;;;;;;;1.20;1.10;;;10.60;99.90;;;;;;4943463;28;20189;-67
2023/01/06 04:35:51;;;;;;;1.27;1.17;;;10.70;99.90;;;;;;4944574;28;20198;-67
2023/01/06 04:38:17;;;;;;;1.30;1.20;;;10.70;99.90;;;;;;4944342;28;20469;-67
2023/01/06 04:40:43;;;;;;;1.73;1.50;;;10.70;99.90;;;;;;4944190;29;20513;-67
2023/01/06 04:43:14;;;;;;;2.30;1.42;;;10.60;99.90;;;;;;4943012;28;20453;-69
2023/01/06 04:45:42;;;;;;;2.55;1.23;;;10.50;99.90;;;;;;4949964;28;20202;-66
2023/01/06 04:48:08;;;;;;;1.40;1.17;;;10.50;99.90;;;;;;4952328;28;20226;-67
2023/01/06 04:50:35;;;;;;;1.48;1.30;;;10.30;99.90;;;;;;4947188;28;20271;-68
2023/01/06 04:53:00;;;;;;;1.75;1.65;;;10.40;99.90;;;;;;4945988;28;20183;-68
2023/01/06 04:55:26;;;;;;;5.00;4.50;;;10.50;99.90;;;;;;4947646;28;20242;-70
2023/01/06 04:57:52;;;;;;;5.77;1.70;;;10.20;99.90;;;;;;4941994;29;20258;-68
2023/01/06 05:00:19;;;;;;;1.63;1.53;;;10.10;99.90;;;;;;4947593;29;20508;-68
2023/01/06 05:02:45;;;;;;;2.05;1.52;;;10.10;99.90;;;;;;4945866;28;20931;-67
2023/01/06 05:05:12;;;;;;;3.25;1.63;;;10.20;99.90;;;;;;4941489;29;20219;-67
2023/01/06 05:07:38;;;;;;;1.70;1.60;;;10.20;99.90;;;;;;4947278;28;20696;-67
2023/01/06 05:10:05;;;;;;;1.67;1.57;;;10.40;99.90;;;;;;4945682;28;20209;-68
2023/01/06 05:12:31;;;;;;;2.08;1.50;;;10.20;99.90;;;;;;4949662;28;20197;-68
2023/01/06 05:14:57;;;;;;;1.70;1.60;;;10.40;99.90;;;;;;4948004;28;20195;-68
2023/01/06 05:17:23;;;;;;;2.70;1.73;;;10.40;99.90;;;;;;4948988;28;20213;-69
2023/01/06 05:19:49;;;;;;;1.70;1.60;;;10.40;99.90;;;;;;4951145;28;20457;-69
2023/01/06 05:22:14;;;;;;;1.90;1.70;;;10.20;99.90;;;;;;4942029;28;20447;-69
2023/01/06 05:24:40;;;;;;;1.93;1.70;;;10.30;99.90;;;;;;4943940;29;20194;-68
2023/01/06 05:27:06;;;;;;;1.73;1.63;;;10.40;99.90;;;;;;4947300;28;20203;-67
2023/01/06 05:29:32;;;;;;;2.37;2.00;;;10.20;99.90;;;;;;4946474;28;20209;-67
2023/01/06 05:31:57;;;;;;;2.43;1.80;;;10.50;99.90;;;;;;4943767;29;20186;-66
2023/01/06 05:34:23;;;;;;;2.23;1.50;;;10.40;99.90;;;;;;4946621;28;20919;-66
2023/01/06 05:36:49;;;;;;;1.77;1.60;;;10.60;99.90;;;;;;4947444;29;20215;-66
2023/01/06 05:39:14;;;;;;;1.70;1.60;;;10.80;99.90;;;;;;4946933;28;20290;-66
2023/01/06 05:41:40;;;;;;;2.47;1.80;;;10.70;99.90;;;;;;4946890;29;20685;-67
2023/01/06 05:44:06;;;;;;;2.00;1.63;;;10.70;99.90;;;;;;4943229;28;20217;-66
2023/01/06 05:46:31;;;;;;;2.40;1.83;;;10.60;99.90;;;;;;4946216;28;20222;-66
2023/01/06 05:48:59;;;;;;;2.90;2.23;;;10.40;99.90;;;;;;4950949;28;20209;-66
2023/01/06 05:51:25;;;;;;;2.13;2.00;;;10.40;99.90;;;;;;4945121;28;20191;-66
2023/01/06 05:53:50;;;;;;;1.37;1.27;;;10.70;99.90;;;;;;4948617;28;20194;-66
2023/01/06 05:56:18;;;;;;;1.67;1.57;;;10.70;99.90;;;;;;4946881;28;20763;-67
2023/01/06 05:58:53;;;;;;;2.50;1.65;;;10.60;99.90;;;;;;4947177;28;20219;-67
2023/01/06 06:01:24;;;;;;;2.08;1.50;;;10.70;99.90;;;;;;4943483;28;20189;-66
2023/01/06 06:03:51;;;;;;;2.47;1.60;;;10.70;99.90;;;;;;4948905;28;20199;-66
2023/01/06 06:06:18;;;;;;;2.10;1.90;;;10.00;99.90;;;;;;4945353;28;20229;-66
2023/01/06 06:08:44;;;;;;;1.90;1.48;;;10.80;99.90;;;;;;4945794;28;20206;-67
2023/01/06 06:11:12;;;;;;;1.67;1.57;;;10.60;99.90;;;;;;4941258;28;20202;-68
2023/01/06 06:13:43;;;;;;;1.67;1.58;;;10.60;99.90;;;;;;4945927;28;20559;-66
2023/01/06 06:16:11;;;;;;;2.17;1.70;;;10.70;99.90;;;;;;4939285;28;20211;-67
2023/01/06 06:18:43;;;;;;;1.75;1.65;;;10.80;99.90;;;;;;4935593;28;20219;-67
2023/01/06 06:21:11;;;;;;;1.92;1.60;;;11.00;99.90;;;;;;4955480;28;20195;-67
2023/01/06 06:23:37;;;;;;;1.83;1.73;;;11.00;99.90;;;;;;4939178;28;20290;-66
2023/01/06 06:26:02;;;;;;;2.17;1.60;;;10.90;99.90;;;;;;4945850;28;20274;-65
2023/01/06 06:28:32;;;;;;;1.57;1.40;;;10.80;99.90;;;;;;4942420;28;20214;-65
2023/01/06 06:31:09;;;;;;;1.90;1.63;;;11.10;99.90;;;;;;4944770;28;20274;-67
2023/01/06 06:33:35;;;;;;;3.95;1.63;;;10.90;99.90;;;;;;4940288;28;20183;-67
2023/01/06 06:36:03;;;;;;;2.40;1.67;;;11.10;99.90;;;;;;4940266;28;20188;-67
2023/01/06 06:38:28;;;;;;;1.40;1.30;;;11.10;99.90;;;;;;4939729;28;20238;-67
2023/01/06 06:40:54;;;;;;;1.93;1.40;;;11.10;99.90;;;;;;4946123;28;20680;-66
2023/01/06 06:43:20;;;;;;;1.77;1.40;;;11.10;99.90;;;;;;4946940;28;20535;-67
2023/01/06 06:45:49;;;;;;;1.77;1.23;;;11.20;99.90;;;;;;4941706;28;20539;-67
2023/01/06 06:48:15;;;;;;;1.52;1.42;;;11.00;99.90;;;;;;4942685;28;20236;-66
2023/01/06 06:50:41;;;;;;;1.50;1.40;;;11.10;99.90;;;;;;4938148;28;20647;-67
2023/01/06 06:53:07;;;;;;;1.40;1.30;;;11.20;99.90;;;;;;4940514;28;20204;-66
2023/01/06 06:55:33;;;;;;;1.50;1.40;;;11.30;99.90;;;;;;4946302;28;20246;-66
2023/01/06 06:57:58;;;;;;;2.03;1.70;;;11.20;99.90;;;;;;4940833;28;20482;-66
2023/01/06 07:00:25;;;;;;;1.50;1.40;;;11.40;99.90;;;;;;4940742;28;20196;-67
2023/01/06 07:02:51;;;;;;;2.60;2.40;;;11.30;99.90;;;;;;4941970;28;20218;-67
2023/01/06 07:05:17;;;;;;;1.95;1.50;;;11.40;99.90;;;;;;4937832;28;20190;-67
2023/01/06 07:07:43;;;;;;;1.70;1.60;;;11.10;99.90;;;;;;4940666;28;20212;-67
2023/01/06 07:10:13;;;;;;;3.80;3.50;;;11.30;99.90;;;;;;4940388;28;20293;-66
2023/01/06 07:12:39;;;;;;;3.05;2.85;;;11.60;99.90;;;;;;4942735;28;20295;-67
2023/01/06 07:15:05;;;;;;;1.93;1.83;;;11.40;99.90;;;;;;4941371;29;20617;-67
2023/01/06 07:17:31;;;;;;;1.50;1.40;;;11.10;99.90;;;;;;4949756;28;20222;-68
2023/01/06 07:19:57;;;;;;;1.40;1.30;;;11.30;99.90;;;;;;4956904;28;20765;-68
2023/01/06 07:22:22;;;;;;;1.40;1.30;;;11.30;99.90;;;;;;4955562;28;20226;-68
2023/01/06 07:24:48;;;;;;;1.50;1.40;;;11.50;99.90;;;;;;4942080;28;20671;-68
2023/01/06 07:27:14;;;;;;;1.67;1.40;;;11.80;99.90;;;;;;4937068;29;20539;-68
2023/01/06 07:29:39;;;;;;;2.30;2.10;;;11.70;99.90;;;;;;4941857;28;20216;-69
2023/01/06 07:32:05;;;;;;;3.47;1.70;;;11.60;99.90;;;;;;4938673;28;20835;-69
2023/01/06 07:34:31;;;;;;;2.50;1.60;;;11.60;99.90;;;;;;4941673;28;20648;-67
2023/01/06 07:36:56;;;;;;;1.40;1.30;;;11.50;99.90;;;;;;4941972;28;20215;-67
2023/01/06 07:39:22;;;;;;;1.70;1.60;;;11.70;99.90;;;;;;4946384;28;20243;-75
2023/01/06 07:41:48;;;;;;;1.90;1.80;;;11.70;99.90;;;;;;4943686;28;20188;-72
2023/01/06 07:44:13;;;;;;;1.67;1.57;;;11.70;99.90;;;;;;4963667;28;20193;-72
2023/01/06 07:46:39;;;;;;;1.60;1.50;;;11.90;99.90;;;;;;4938507;28;20212;-73
2023/01/06 07:49:05;;;;;;;1.70;1.60;;;12.10;99.90;;;;;;4946908;28;20240;-71
2023/01/06 07:51:30;;;;;;;2.50;1.53;;;11.90;99.90;;;;;;4941315;28;20187;-67
2023/01/06 07:53:56;;;;;;;2.70;1.70;;;12.00;99.90;;;;;;4944241;28;20276;-71
2023/01/06 07:56:22;;;;;;;1.57;1.43;;;12.20;99.90;;;;;;4941469;28;20673;-75
2023/01/06 07:58:48;;;;;;;1.63;1.52;;;11.80;99.90;;;;;;4942702;29;20250;-75
2023/01/06 08:01:14;;;;;;;1.53;1.43;;;11.80;99.90;;;;;;4955839;28;20188;-70
2023/01/06 08:03:40;;;;;;;1.60;1.37;;;11.90;99.90;;;;;;4938559;28;20437;-74
2023/01/06 08:06:10;;;;;;;2.53;1.70;;;11.90;99.90;;;;;;4944106;28;20902;-74
2023/01/06 08:08:37;;;;;;;1.75;1.65;;;12.10;99.90;;;;;;4945721;28;20456;-73
2023/01/06 08:11:04;;;;;;;1.65;1.55;;;12.10;99.90;;;;;;4946988;28;20641;-75
2023/01/06 08:13:29;;;;;;;2.00;1.40;;;12.10;99.90;;;;;;4946218;28;20267;-77
2023/01/06 08:15:55;;;;;;;2.80;2.23;;;12.10;99.90;;;;;;4944475;28;20650;-76
2023/01/06 08:18:21;;;;;;;1.60;1.50;;;11.90;99.90;;;;;;4949728;29;20248;-79
2023/01/06 08:20:46;;;;;;;2.10;1.93;;;12.00;99.90;;;;;;4944504;29;20279;-79
2023/01/06 08:23:12;;;;;;;1.90;1.80;;;12.10;99.90;;;;;;4951449;28;20290;-80
2023/01/06 08:25:37;;;;;;;2.00;1.80;;;12.00;99.90;;;;;;4958191;28;20280;-76
2023/01/06 08:28:03;;;;;;;2.10;1.90;;;12.10;99.90;;;;;;4949556;28;20697;-77
2023/01/06 08:30:29;;;;;;;1.60;1.50;;;12.00;99.90;;;;;;4949650;28;20180;-74
2023/01/06 08:32:56;;;;;;;1.93;1.70;;;12.00;99.90;;;;;;4948670;28;20440;-71
2023/01/06 08:35:22;;;;;;;2.00;1.90;;;12.00;99.90;;;;;;4946575;28;20432;-71
2023/01/06 08:37:48;;;;;;;1.97;1.87;;;12.00;99.90;;;;;;4944135;28;20226;-72
2023/01/06 08:40:13;;;;;;;2.27;2.07;;;11.70;99.90;;;;;;4940249;29;20193;-77
2023/01/06 08:42:39;;;;;;;1.90;1.80;;;11.60;99.90;;;;;;4955188;28;20648;-73
2023/01/06 08:45:06;;;;;;;1.90;1.80;;;11.70;99.90;;;;;;4949696;29;20185;-73
2023/01/06 08:47:32;;;;;;;2.55;2.13;;;11.70;99.90;;;;;;4951281;28;20211;-81
2023/01/06 08:49:58;;;;;;;2.05;1.95;;;11.90;99.90;;;;;;4961400;28;20217;-78
2023/01/06 08:52:23;;;;;;;2.37;2.17;;;11.70;99.90;;;;;;4952914;28;20541;-74
2023/01/06 08:54:49;;;;;;;2.10;2.00;;;12.10;99.90;;;;;;4955750;28;20199;-76
2023/01/06 08:57:15;;;;;;;2.00;1.90;;;11.90;99.90;;;;;;4948487;28;21793;-77
2023/01/06 08:59:41;;;;;;;2.80;2.50;;;12.10;99.90;;;;;;4946270;28;20200;-76
2023/01/06 09:02:11;;;;;;;2.20;2.00;;;12.00;99.90;;;;;;4949915;28;20193;-74
2023/01/06 09:04:37;;;;;;;2.15;2.03;;;12.00;99.90;;;;;;4949743;28;20185;-67
2023/01/06 09:07:03;;;;;;;2.57;2.20;;;11.90;99.90;;;;;;4946582;28;20221;-69
2023/01/06 09:09:28;;;;;;;1.77;1.50;;;11.70;99.90;;;;;;4939176;28;20212;-73
2023/01/06 09:11:54;;;;;;;1.30;1.20;;;11.60;99.90;;;;;;4945492;28;20459;-72
2023/01/06 09:14:19;;;;;;;1.00;1.00;;;11.70;99.90;;;;;;4947549;29;20216;-74
2023/01/06 09:16:47;;;;;;;2.03;1.40;;;11.50;99.90;;;;;;4950405;29;20643;-69
2023/01/06 09:19:13;;;;;;;1.20;1.10;;;11.70;99.90;;;;;;4949262;28;20195;-68
2023/01/06 09:21:41;;;;;;;1.48;1.15;;;11.80;99.90;;;;;;4943086;28;20200;-68
2023/01/06 09:24:11;;;;;;;3.10;1.10;;;11.60;99.90;;;;;;4942944;28;20187;-72
2023/01/06 09:26:37;;;;;;;2.10;0.90;;;11.70;99.90;;;;;;4949482;28;20205;-70
2023/01/06 09:29:03;;;;;;;1.57;1.07;;;11.60;99.90;;;;;;4944522;28;20967;-72
2023/01/06 09:31:28;;;;;;;0.80;0.80;;;11.60;99.90;;;;;;4948026;28;20524;-66
2023/01/06 09:33:54;;;;;;;1.57;0.90;;;11.90;99.90;;;;;;4948878;28;20189;-72
2023/01/06 09:36:20;;;;;;;1.10;1.00;;;12.10;99.90;;;;;;4949914;28;20208;-68
2023/01/06 09:38:46;;;;;;;1.60;1.00;;;12.30;99.90;;;;;;4947033;28;20539;-67
2023/01/06 09:41:19;;;;;;;1.50;0.90;;;12.40;99.90;;;;;;4938970;28;20550;-68
2023/01/06 09:43:51;;;;;;;1.53;1.27;;;12.50;99.90;;;;;;4944133;28;20478;-69
2023/01/06 09:46:22;;;;;;;1.85;1.00;;;13.10;99.90;;;;;;4950892;28;20468;-70
2023/01/06 09:49:04;;;;;;;1.80;1.00;;;12.70;99.90;;;;;;4945655;28;20438;-71
2023/01/06 09:51:31;;;;;;;1.13;0.90;;;12.80;99.90;;;;;;4944817;28;20444;-71
2023/01/06 09:54:11;;;;;;;3.78;1.60;;;13.00;99.90;;;;;;4949711;28;20215;-64
2023/01/06 09:56:41;;;;;;;1.15;0.95;;;13.20;99.90;;;;;;4949679;28;20212;-71
2023/01/06 09:59:15;;;;;;;0.98;0.95;;;13.40;99.90;;;;;;4947161;28;20193;-74
2023/01/06 10:01:46;;;;;;;1.20;1.00;;;13.00;99.90;;;;;;4951097;28;20255;-72
2023/01/06 10:04:28;;;;;;;2.45;1.17;;;13.70;99.90;;;;;;4946877;28;20223;-69
2023/01/06 10:07:17;;;;;;;0.93;0.82;;;14.20;99.90;;;;;;4944864;28;20317;-74
2023/01/06 10:09:43;;;;;;;0.93;0.80;;;14.80;99.90;;;;;;4950454;28;20283;-69
2023/01/06 10:12:46;;;;;;;0.83;0.77;;;14.70;99.90;;;;;;4941845;28;20739;-69
2023/01/06 10:15:31;;;;;;;1.20;0.88;;;14.50;99.90;;;;;;4956557;28;21041;-70
2023/01/06 10:18:25;;;;;;;1.95;1.42;;;14.40;99.90;;;;;;4942434;28;20197;-67
2023/01/06 10:21:01;;;;;;;1.00;0.80;;;14.20;99.90;;;;;;4943754;28;20862;-71
2023/01/06 10:23:47;;;;;;;0.80;0.80;;;14.10;99.90;;;;;;4948241;28;20173;-70
2023/01/06 10:26:22;;;;;;;1.27;0.98;;;14.20;99.90;;;;;;4945797;28;20662;-69
2023/01/06 10:28:53;;;;;;;1.52;1.10;;;13.70;99.90;;;;;;4943712;28;20252;-66
2023/01/06 10:31:26;;;;;;;1.88;0.95;;;13.90;99.90;;;;;;4949968;28;20617;-67
2023/01/06 10:33:56;;;;;;;1.15;1.00;;;14.10;99.90;;;;;;4942344;28;20232;-68
2023/01/06 10:36:38;;;;;;;0.93;0.77;;;13.80;99.90;;;;;;4945095;28;20219;-68
2023/01/06 10:39:11;;;;;;;1.30;0.82;;;13.90;99.90;;;;;;4940629;28;20741;-70
2023/01/06 10:44:54;;;;;;;1.15;0.70;;;14.00;99.90;;;;;;4945774;28;20963;-70
2023/01/06 10:47:25;;;;;;;1.10;0.80;;;13.70;99.90;;;;;;4946446;28;20216;-71
2023/01/06 10:49:51;;;;;;;0.80;0.60;;;13.90;99.90;;;;;;4961701;28;20214;-69
2023/01/06 10:52:18;;;;;;;0.70;0.67;;;14.00;99.90;;;;;;4947875;28;20612;-69
2023/01/06 10:54:44;;;;;;;1.48;1.17;;;14.00;99.90;;;;;;4943230;28;20295;-69
2023/01/06 10:57:22;;;;;;;1.30;0.60;;;14.00;99.90;;;;;;4945770;28;20693;-69
2023/01/06 11:00:06;;;;;;;1.20;1.10;;;14.00;99.90;;;;;;4945313;28;20283;-70
2023/01/06 11:02:32;;;;;;;0.70;0.70;;;13.80;99.90;;;;;;4940366;28;20193;-69
2023/01/06 11:05:01;;;;;;;0.80;0.80;;;13.70;99.90;;;;;;4964275;28;20646;-70
2023/01/06 11:07:27;;;;;;;1.33;0.80;;;13.60;99.90;;;;;;4943111;28;20205;-70
2023/01/06 11:09:54;;;;;;;1.15;0.80;;;13.50;99.90;;;;;;4940516;29;21575;-70
2023/01/06 11:12:27;;;;;;;3.15;2.85;;;13.30;99.90;;;;;;4948013;29;20678;-69
2023/01/06 11:15:01;;;;;;;1.23;1.10;;;13.60;99.90;;;;;;4949066;28;20271;-70
2023/01/06 11:17:28;;;;;;;2.25;0.93;;;13.50;99.90;;;;;;4942113;29;20207;-69
2023/01/06 11:20:06;;;;;;;1.17;1.00;;;13.70;99.90;;;;;;4946207;28;20737;-70
2023/01/06 11:22:36;;;;;;;2.03;1.00;;;13.60;99.90;;;;;;4945687;28;20195;-70
2023/01/06 11:25:21;;;;;;;0.80;0.60;;;13.60;99.90;;;;;;4944427;28;20192;-70
2023/01/06 11:28:07;;;;;;;0.75;0.70;;;13.80;99.90;;;;;;4944443;28;20740;-70
2023/01/06 11:30:47;;;;;;;0.68;0.65;;;13.80;99.90;;;;;;4953437;28;20778;-70
2023/01/06 11:33:25;;;;;;;1.50;1.40;;;13.70;99.90;;;;;;4943423;28;20269;-69
2023/01/06 11:35:51;;;;;;;1.10;1.00;;;13.90;99.90;;;;;;4947895;28;20204;-70
2023/01/06 11:38:19;;;;;;;0.80;0.70;;;13.80;99.90;;;;;;4944835;28;20204;-68
2023/01/06 11:40:50;;;;;;;2.72;0.75;;;14.10;99.90;;;;;;4946447;28;20196;-69
2023/01/06 11:43:24;;;;;;;1.67;1.00;;;13.90;99.90;;;;;;4941741;28;20669;-69
2023/01/06 11:46:02;;;;;;;1.88;0.70;;;14.30;99.90;;;;;;4948840;28;20276;-69
2023/01/06 11:48:35;;;;;;;1.52;0.82;;;14.30;99.90;;;;;;4948095;28;20227;-69
2023/01/06 11:51:03;;;;;;;0.70;0.60;;;14.20;99.90;;;;;;4947031;28;20312;-70
2023/01/06 11:53:30;;;;;;;0.75;0.70;;;14.40;99.90;;;;;;4963241;28;20255;-69
2023/01/06 11:56:03;;;;;;;0.70;0.70;;;14.20;99.90;;;;;;4947624;28;20189;-70
2023/01/06 11:58:54;;;;;;;0.70;0.60;;;14.40;99.90;;;;;;4957191;28;20220;-70
2023/01/06 12:01:36;;;;;;;0.73;0.68;;;14.30;99.90;;;;;;4949651;28;20260;-70
2023/01/06 12:04:23;;;;;;;0.60;0.50;;;14.40;99.90;;;;;;4943797;28;20655;-70
2023/01/06 12:06:53;;;;;;;0.70;0.60;;;14.00;99.90;;;;;;4943357;28;20228;-70
2023/01/06 12:09:32;;;;;;;1.10;0.60;;;13.70;99.90;;;;;;4941650;28;20271;-69
2023/01/06 12:12:06;;;;;;;1.10;0.60;;;14.00;99.90;;;;;;4944557;28;20255;-70
2023/01/06 12:14:37;;;;;;;0.80;0.70;;;14.00;99.90;;;;;;4945332;28;20193;-70
2023/01/06 12:17:24;;;;;;;0.70;0.70;;;14.00;99.90;;;;;;4943663;28;20304;-70
2023/01/06 12:20:13;;;;;;;0.77;0.60;;;14.00;99.90;;;;;;4961719;28;20692;-70
2023/01/06 12:22:50;;;;;;;0.80;0.80;;;14.10;99.90;;;;;;4948174;28;20201;-69
2023/01/06 12:25:25;;;;;;;0.98;0.82;;;14.20;99.90;;;;;;4940988;28;20598;-69
2023/01/06 12:28:04;;;;;;;1.20;0.90;;;14.10;99.90;;;;;;4947041;28;20246;-70
2023/01/06 12:30:30;;;;;;;0.70;0.70;;;13.80;99.90;;;;;;4951482;28;20260;-68
2023/01/06 12:33:11;;;;;;;1.10;0.90;;;13.60;99.90;;;;;;4953705;28;20705;-68
2023/01/06 12:35:38;;;;;;;1.23;0.90;;;13.90;99.90;;;;;;4950628;28;20192;-69
2023/01/06 12:38:18;;;;;;;0.90;0.60;;;13.80;99.90;;;;;;4949373;28;20216;-69
2023/01/06 12:40:59;;;;;;;0.80;0.60;;;13.80;99.90;;;;;;4947429;28;20264;-68
2023/01/06 12:43:29;;;;;;;0.80;0.60;;;13.90;99.90;;;;;;4950745;28;20280;-69
2023/01/06 12:46:16;;;;;;;1.02;0.90;;;14.00;99.90;;;;;;4954108;28;20794;-69
2023/01/06 12:48:54;;;;;;;1.10;1.00;;;13.80;99.90;;;;;;4945063;28;20215;-69
2023/01/06 12:51:37;;;;;;;2.05;0.70;;;14.00;99.90;;;;;;4946243;28;20182;-77
2023/01/06 12:54:22;;;;;;;1.15;0.90;;;13.60;99.90;;;;;;4946405;28;20193;-76
2023/01/06 12:57:16;;;;;;;1.58;1.02;;;13.80;99.90;;;;;;4948778;28;20673;-76
2023/01/06 13:00:03;;;;;;;1.35;0.85;;;13.60;99.90;;;;;;4941530;29;20702;-76
2023/01/06 13:02:59;;;;;;;1.27;1.17;;;13.70;99.90;;;;;;4947401;28;20189;-77
2023/01/06 13:05:52;;;;;;;0.90;0.70;;;13.90;99.90;;;;;;4946982;28;20187;-76
2023/01/06 13:08:32;;;;;;;1.23;1.13;;;13.80;99.90;;;;;;4947359;28;20212;-78
2023/01/06 13:11:26;;;;;;;1.42;1.33;;;14.00;99.90;;;;;;4949418;28;20729;-77